Time;durP1;ratioP1;P1;durP2;ratioP2;P2;SDS_P1;SDS_P2;PMS_P1;PMS_P2;Temp;Humidity;BMP_temperature;BMP_pressure;BME280_temperature;BME280_humidity;BME280_pressure;Samples;Min_cycle;Max_cycle;Signal;HPM_P1;HPM_P2
2022/03/27 00:00:13;;;;;;;2.70;1.90;;;14.00;99.90;;;;;;1022620;29;20098;-64
2022/03/27 00:00:44;;;;;;;2.17;1.88;;;14.00;99.90;;;;;;1022853;29;20054;-63
2022/03/27 00:01:15;;;;;;;2.10;1.70;;;14.00;99.90;;;;;;1022470;29;20067;-64
2022/03/27 00:01:46;;;;;;;2.78;2.20;;;14.00;99.90;;;;;;1022856;29;20106;-63
2022/03/27 00:02:18;;;;;;;2.93;1.90;;;14.00;99.90;;;;;;1022738;29;20661;-64
2022/03/27 00:02:48;;;;;;;1.73;1.58;;;13.90;99.90;;;;;;1022854;29;20046;-63
2022/03/27 00:03:19;;;;;;;2.40;1.93;;;14.00;99.90;;;;;;1022552;29;20034;-63
2022/03/27 00:03:50;;;;;;;1.97;1.80;;;14.00;99.90;;;;;;1022680;29;20058;-65
2022/03/27 00:04:20;;;;;;;3.13;1.90;;;14.00;99.90;;;;;;1022790;29;20023;-63
2022/03/27 00:04:51;;;;;;;2.47;2.27;;;13.90;99.90;;;;;;1022848;29;20474;-63
2022/03/27 00:05:21;;;;;;;2.33;2.00;;;13.90;99.90;;;;;;1022848;29;20446;-63
2022/03/27 00:05:52;;;;;;;3.77;2.07;;;13.90;99.90;;;;;;1022674;29;20109;-63
2022/03/27 00:06:22;;;;;;;2.70;1.97;;;14.00;99.90;;;;;;1022868;29;20093;-63
2022/03/27 00:06:53;;;;;;;2.00;1.70;;;14.00;99.90;;;;;;1022711;29;20027;-65
2022/03/27 00:07:23;;;;;;;2.60;2.40;;;13.90;99.90;;;;;;1022744;29;20103;-63
2022/03/27 00:07:54;;;;;;;3.10;2.03;;;13.90;99.90;;;;;;1022762;29;20031;-64
2022/03/27 00:08:24;;;;;;;2.10;1.60;;;14.00;99.90;;;;;;1022683;29;20081;-63
2022/03/27 00:08:55;;;;;;;2.83;1.87;;;14.00;99.90;;;;;;1022965;29;20027;-65
2022/03/27 00:09:25;;;;;;;2.53;1.80;;;14.00;99.90;;;;;;1022507;29;20027;-65
2022/03/27 00:09:56;;;;;;;2.93;2.30;;;13.90;99.90;;;;;;1018172;29;20019;-65
2022/03/27 00:10:26;;;;;;;2.20;1.93;;;14.00;99.90;;;;;;1018279;29;20170;-64
2022/03/27 00:11:46;;;;;;;3.60;2.20;;;13.90;99.90;;;;;;1023084;29;20406;-64
2022/03/27 00:12:17;;;;;;;4.00;2.10;;;14.00;99.90;;;;;;1022357;29;20555;-64
2022/03/27 00:12:47;;;;;;;2.20;1.90;;;14.00;99.90;;;;;;1022727;29;20028;-64
2022/03/27 00:13:18;;;;;;;2.40;2.20;;;13.90;99.90;;;;;;1022429;29;20908;-65
2022/03/27 00:13:48;;;;;;;2.90;2.00;;;13.90;99.90;;;;;;1022616;29;20837;-64
2022/03/27 00:14:19;;;;;;;2.70;2.00;;;13.90;99.90;;;;;;1022730;29;20023;-63
2022/03/27 00:14:50;;;;;;;3.03;2.30;;;13.90;99.90;;;;;;1022822;29;20030;-64
2022/03/27 00:15:20;;;;;;;2.70;2.10;;;13.90;99.90;;;;;;1022863;29;20047;-64
2022/03/27 00:15:51;;;;;;;1.97;1.77;;;14.00;99.90;;;;;;1022668;29;20467;-64
2022/03/27 00:16:22;;;;;;;2.10;1.80;;;13.90;99.90;;;;;;1022278;29;20050;-64
2022/03/27 00:16:52;;;;;;;2.35;2.13;;;13.90;99.90;;;;;;1022438;29;20106;-65
2022/03/27 00:17:23;;;;;;;2.30;1.63;;;13.90;99.90;;;;;;1022408;29;20019;-65
2022/03/27 00:17:54;;;;;;;2.07;1.87;;;13.90;99.90;;;;;;1022530;29;20070;-63
2022/03/27 00:18:25;;;;;;;2.30;1.90;;;13.90;99.90;;;;;;1022912;29;20027;-64
2022/03/27 00:18:56;;;;;;;2.78;2.00;;;13.90;99.90;;;;;;1022837;28;20034;-65
2022/03/27 00:19:26;;;;;;;2.70;2.00;;;14.00;99.90;;;;;;1022884;29;20118;-64
2022/03/27 00:19:57;;;;;;;4.97;2.17;;;13.90;99.90;;;;;;1026368;28;20430;-64
2022/03/27 00:20:27;;;;;;;2.47;2.13;;;14.00;99.90;;;;;;1026563;28;20716;-64
2022/03/27 00:20:58;;;;;;;3.77;2.30;;;14.00;99.90;;;;;;1026321;28;20038;-65
2022/03/27 00:21:29;;;;;;;2.30;2.00;;;14.00;99.90;;;;;;1026522;28;20050;-63
2022/03/27 00:21:59;;;;;;;4.07;2.20;;;14.00;99.90;;;;;;1022894;29;20047;-63
2022/03/27 00:22:30;;;;;;;3.03;2.43;;;13.90;99.90;;;;;;1022716;29;20494;-64
2022/03/27 00:23:01;;;;;;;1.95;1.73;;;13.90;99.90;;;;;;1022365;29;20553;-66
2022/03/27 00:23:32;;;;;;;2.17;1.75;;;13.90;99.90;;;;;;1022451;29;20050;-65
2022/03/27 00:24:03;;;;;;;3.50;2.63;;;13.90;99.90;;;;;;1022505;29;20573;-64
2022/03/27 00:24:33;;;;;;;2.67;2.47;;;13.90;99.90;;;;;;1015100;29;20035;-65
2022/03/27 00:25:08;;;;;;;2.33;2.10;;;13.90;99.90;;;;;;1018711;29;20563;-65
2022/03/27 00:25:39;;;;;;;2.33;2.10;;;13.90;99.90;;;;;;1018756;29;20098;-64
2022/03/27 00:26:12;;;;;;;2.92;2.15;;;13.90;99.90;;;;;;1021501;29;20039;-64
2022/03/27 00:26:43;;;;;;;2.55;2.15;;;13.90;99.90;;;;;;1022854;29;20163;-64
2022/03/27 00:27:13;;;;;;;2.77;2.50;;;13.90;99.90;;;;;;1022768;29;20073;-63
2022/03/27 00:27:44;;;;;;;2.70;2.30;;;13.90;99.90;;;;;;1022932;29;20038;-65
2022/03/27 00:28:14;;;;;;;3.60;2.57;;;13.90;99.90;;;;;;1022835;29;20023;-64
2022/03/27 00:28:45;;;;;;;4.27;2.30;;;13.90;99.90;;;;;;1023086;29;20154;-63
2022/03/27 00:29:17;;;;;;;4.33;2.77;;;13.90;99.90;;;;;;1023032;29;20011;-63
2022/03/27 00:29:48;;;;;;;3.38;2.72;;;13.90;99.90;;;;;;1023182;28;20099;-63
2022/03/27 00:30:18;;;;;;;3.00;2.70;;;13.90;99.90;;;;;;1022532;29;20103;-63
2022/03/27 00:30:49;;;;;;;2.30;2.10;;;13.90;99.90;;;;;;1022657;29;20018;-63
2022/03/27 00:31:19;;;;;;;4.17;2.77;;;13.90;99.90;;;;;;1021900;29;20458;-67
2022/03/27 00:31:50;;;;;;;3.57;2.67;;;13.90;99.90;;;;;;1014834;29;20024;-65
2022/03/27 00:32:22;;;;;;;3.70;2.73;;;13.90;99.90;;;;;;1022023;29;20094;-64
2022/03/27 00:32:53;;;;;;;3.35;3.05;;;13.90;99.90;;;;;;1022346;29;20872;-65
2022/03/27 00:33:23;;;;;;;2.80;2.40;;;13.90;99.90;;;;;;1022360;29;20543;-64
2022/03/27 00:33:54;;;;;;;3.13;2.20;;;13.90;99.90;;;;;;1022792;29;20019;-65
2022/03/27 00:34:25;;;;;;;3.27;2.47;;;13.90;99.90;;;;;;1022663;29;20015;-65
2022/03/27 00:34:55;;;;;;;2.78;2.53;;;13.90;99.90;;;;;;1022727;29;20534;-65
2022/03/27 00:35:26;;;;;;;2.93;2.33;;;13.90;99.90;;;;;;1022455;29;20023;-65
2022/03/27 00:35:57;;;;;;;3.07;2.60;;;13.90;99.90;;;;;;1022496;29;20016;-65
2022/03/27 00:36:28;;;;;;;4.18;2.25;;;13.90;99.90;;;;;;1022177;29;20134;-66
2022/03/27 00:36:58;;;;;;;2.47;2.20;;;13.90;99.90;;;;;;1022458;29;20012;-65
2022/03/27 00:37:29;;;;;;;3.33;2.83;;;13.90;99.90;;;;;;1022690;29;20018;-66
2022/03/27 00:38:00;;;;;;;2.73;2.43;;;13.90;99.90;;;;;;1022892;29;20020;-63
2022/03/27 00:38:30;;;;;;;2.80;2.13;;;13.90;99.90;;;;;;1022654;29;20422;-63
2022/03/27 00:39:01;;;;;;;2.50;2.30;;;13.90;99.90;;;;;;1022507;29;20426;-66
2022/03/27 00:39:32;;;;;;;3.07;2.43;;;13.90;99.90;;;;;;1022701;29;20078;-64
2022/03/27 00:40:03;;;;;;;3.30;2.40;;;13.90;99.90;;;;;;1022812;29;20019;-65
2022/03/27 00:40:34;;;;;;;2.85;2.40;;;13.90;99.90;;;;;;1022193;29;20047;-64
2022/03/27 00:41:05;;;;;;;3.40;3.03;;;13.90;99.90;;;;;;1022294;29;20019;-65
2022/03/27 00:41:36;;;;;;;4.03;3.20;;;13.90;99.90;;;;;;1022235;29;20415;-65
2022/03/27 00:42:07;;;;;;;4.07;2.40;;;13.90;99.90;;;;;;1022447;29;20518;-64
2022/03/27 00:42:38;;;;;;;2.90;2.57;;;13.90;99.90;;;;;;1022331;28;20023;-63
2022/03/27 00:43:09;;;;;;;3.37;2.43;;;13.90;99.90;;;;;;1022710;28;20496;-65
2022/03/27 00:43:40;;;;;;;2.60;2.40;;;13.90;99.90;;;;;;1026551;28;20019;-65
2022/03/27 00:44:11;;;;;;;3.72;2.67;;;13.90;99.90;;;;;;1026057;28;20672;-63
2022/03/27 00:44:41;;;;;;;4.53;3.10;;;13.90;99.90;;;;;;1022853;28;20730;-64
2022/03/27 00:45:12;;;;;;;4.23;2.60;;;13.90;99.90;;;;;;1022641;28;20113;-64
2022/03/27 00:45:43;;;;;;;3.50;2.77;;;13.90;99.90;;;;;;1019439;29;20028;-64
2022/03/27 00:46:13;;;;;;;3.53;2.67;;;13.90;99.90;;;;;;1022243;28;20102;-66
2022/03/27 00:46:44;;;;;;;3.30;3.00;;;13.80;99.90;;;;;;1022829;29;20122;-64
2022/03/27 00:47:14;;;;;;;3.43;2.87;;;13.80;99.90;;;;;;1022621;29;20063;-65
2022/03/27 00:47:45;;;;;;;3.73;2.60;;;13.80;99.90;;;;;;1022395;29;20714;-64
2022/03/27 00:48:20;;;;;;;2.77;2.37;;;13.80;99.90;;;;;;1022448;29;20726;-65
2022/03/27 00:48:50;;;;;;;3.28;2.97;;;13.80;99.90;;;;;;1022653;29;20008;-65
2022/03/27 00:49:21;;;;;;;3.00;2.73;;;13.80;99.90;;;;;;1022797;29;20023;-64
2022/03/27 00:49:51;;;;;;;2.97;2.50;;;13.80;99.90;;;;;;1026234;28;20094;-64
2022/03/27 00:50:22;;;;;;;2.50;2.30;;;13.80;99.90;;;;;;1026910;28;20095;-64
2022/03/27 00:50:54;;;;;;;2.67;2.40;;;13.80;99.90;;;;;;1027042;28;20598;-63
2022/03/27 00:51:24;;;;;;;3.78;3.05;;;13.80;99.90;;;;;;1025692;28;20050;-64
2022/03/27 00:51:55;;;;;;;4.10;3.33;;;13.80;99.90;;;;;;1023035;29;20102;-64
2022/03/27 00:52:25;;;;;;;3.00;2.70;;;13.80;99.90;;;;;;1023008;29;20062;-64
2022/03/27 00:52:57;;;;;;;3.43;2.90;;;13.80;99.90;;;;;;1022995;29;20055;-63
2022/03/27 00:53:28;;;;;;;3.00;2.58;;;13.80;99.90;;;;;;1022969;29;20012;-64
2022/03/27 00:53:59;;;;;;;3.07;2.77;;;13.80;99.90;;;;;;1023009;29;20020;-66
2022/03/27 00:54:29;;;;;;;3.72;3.00;;;13.80;99.90;;;;;;1022932;29;20117;-63
2022/03/27 00:55:00;;;;;;;3.80;3.40;;;13.80;99.90;;;;;;1023024;29;20050;-65
2022/03/27 00:55:31;;;;;;;3.07;2.67;;;13.70;99.90;;;;;;1023006;29;20063;-64
2022/03/27 00:56:02;;;;;;;3.75;3.00;;;13.70;99.90;;;;;;1023033;29;20062;-63
2022/03/27 00:56:32;;;;;;;3.33;3.03;;;13.70;99.90;;;;;;1022592;29;20077;-64
2022/03/27 00:57:03;;;;;;;3.57;2.97;;;13.80;99.90;;;;;;1022835;29;20023;-64
2022/03/27 00:57:34;;;;;;;3.23;2.90;;;13.70;99.90;;;;;;1022950;29;20027;-64
2022/03/27 00:58:05;;;;;;;3.63;3.07;;;13.70;99.90;;;;;;1022605;29;20020;-64
2022/03/27 00:58:36;;;;;;;3.67;3.33;;;13.80;99.90;;;;;;1022536;29;20114;-65
2022/03/27 00:59:07;;;;;;;3.77;3.10;;;13.80;99.90;;;;;;1022827;29;20456;-64
2022/03/27 00:59:38;;;;;;;3.53;2.70;;;13.70;99.90;;;;;;1022534;29;20021;-64
2022/03/27 01:00:18;;;;;;;4.57;3.23;;;13.70;99.90;;;;;;1022908;29;20023;-64
2022/03/27 01:00:56;;;;;;;4.95;2.80;;;13.70;99.90;;;;;;1022548;29;20030;-63
2022/03/27 01:01:38;;;;;;;3.58;3.03;;;13.70;99.90;;;;;;1022783;29;20027;-64
2022/03/27 01:02:10;;;;;;;4.43;3.00;;;13.70;99.90;;;;;;1018821;29;20024;-63
2022/03/27 01:02:41;;;;;;;3.42;3.13;;;13.70;99.90;;;;;;1018866;29;20016;-63
2022/03/27 01:03:14;;;;;;;3.70;2.83;;;13.70;99.90;;;;;;1022659;29;20050;-64
2022/03/27 01:03:48;;;;;;;4.10;3.13;;;13.70;99.90;;;;;;1023337;28;20439;-64
2022/03/27 01:04:19;;;;;;;3.90;2.95;;;13.70;99.90;;;;;;1026489;28;20557;-64
2022/03/27 01:04:53;;;;;;;3.50;3.00;;;13.70;99.90;;;;;;1022495;29;20553;-64
2022/03/27 01:05:24;;;;;;;3.97;3.10;;;13.70;99.90;;;;;;1022585;29;20023;-64
2022/03/27 01:05:58;;;;;;;4.53;3.87;;;13.70;99.90;;;;;;1022561;29;20019;-63
2022/03/27 01:06:41;;;;;;;5.60;3.03;;;13.70;99.90;;;;;;1022719;29;20058;-65
2022/03/27 01:07:16;;;;;;;3.78;3.38;;;13.70;99.90;;;;;;1022327;29;20536;-66
2022/03/27 01:07:46;;;;;;;3.35;3.00;;;13.70;99.90;;;;;;1022590;29;20015;-65
2022/03/27 01:09:35;;;;;;;3.60;3.07;;;13.70;99.90;;;;;;1022352;29;20019;-63
2022/03/27 01:09:35;;;;;;;3.78;3.13;;;13.70;99.90;;;;;;1022833;29;20191;-64
2022/03/27 01:10:06;;;;;;;4.03;3.08;;;13.70;99.90;;;;;;1022933;29;20613;-65
2022/03/27 01:10:38;;;;;;;3.78;3.33;;;13.70;99.90;;;;;;1023013;29;20023;-65
2022/03/27 01:11:20;;;;;;;4.90;3.60;;;13.70;99.90;;;;;;1022807;29;20438;-66
2022/03/27 01:11:51;;;;;;;3.50;3.20;;;13.70;99.90;;;;;;1022647;29;20007;-64
2022/03/27 01:12:32;;;;;;;3.53;2.90;;;13.70;99.90;;;;;;1022758;29;20011;-64
2022/03/27 01:13:07;;;;;;;3.92;3.47;;;13.70;99.90;;;;;;1022846;29;20021;-64
2022/03/27 01:13:42;;;;;;;3.92;3.08;;;13.70;99.90;;;;;;1022456;29;20574;-64
2022/03/27 01:14:17;;;;;;;4.05;3.40;;;13.60;99.90;;;;;;1022316;29;20075;-64
2022/03/27 01:14:49;;;;;;;4.30;3.63;;;13.60;99.90;;;;;;1022689;29;20023;-63
2022/03/27 01:15:45;;;;;;;4.53;3.45;;;13.60;99.90;;;;;;1022704;29;20091;-64
2022/03/27 01:16:27;;;;;;;3.47;3.15;;;13.70;99.90;;;;;;1022914;29;20030;-64
2022/03/27 01:17:08;;;;;;;3.47;3.17;;;13.60;99.90;;;;;;1022716;28;20098;-63
2022/03/27 01:17:38;;;;;;;4.47;3.40;;;13.60;99.90;;;;;;1022803;29;20495;-63
2022/03/27 01:18:09;;;;;;;4.00;3.40;;;13.60;99.90;;;;;;1022847;29;20513;-65
2022/03/27 01:18:39;;;;;;;4.40;3.30;;;13.60;99.90;;;;;;1022909;29;20016;-64
2022/03/27 01:19:13;;;;;;;4.47;3.50;;;13.60;99.90;;;;;;1022844;29;20124;-64
2022/03/27 01:19:46;;;;;;;4.78;4.32;;;13.60;99.90;;;;;;1022901;29;20016;-64
2022/03/27 01:20:27;;;;;;;4.63;3.33;;;13.60;99.90;;;;;;1022865;29;20093;-64
2022/03/27 01:20:57;;;;;;;3.72;3.17;;;13.60;99.90;;;;;;1022940;29;20393;-64
2022/03/27 01:21:28;;;;;;;3.90;3.30;;;13.60;99.90;;;;;;1022541;28;20439;-64
2022/03/27 01:22:00;;;;;;;3.63;3.00;;;13.60;99.90;;;;;;1022135;29;20025;-64
2022/03/27 01:22:30;;;;;;;6.22;3.30;;;13.60;99.90;;;;;;1022785;29;20101;-65
2022/03/27 01:23:06;;;;;;;4.40;3.93;;;13.60;99.90;;;;;;1022857;29;20623;-63
2022/03/27 01:23:37;;;;;;;4.88;3.30;;;13.60;99.90;;;;;;1022861;29;20086;-66
2022/03/27 01:24:09;;;;;;;3.73;3.10;;;13.60;99.90;;;;;;1022788;29;20031;-65
2022/03/27 01:24:40;;;;;;;4.88;3.22;;;13.60;99.90;;;;;;1022945;29;20008;-65
2022/03/27 01:25:10;;;;;;;4.30;3.42;;;13.60;99.90;;;;;;1022818;29;20011;-65
2022/03/27 01:25:43;;;;;;;3.83;3.30;;;13.60;99.90;;;;;;1022936;29;20011;-63
2022/03/27 01:26:14;;;;;;;3.35;3.05;;;13.60;99.90;;;;;;1022344;29;20071;-64
2022/03/27 01:26:45;;;;;;;3.63;3.17;;;13.60;99.90;;;;;;1022542;29;20011;-64
2022/03/27 01:27:16;;;;;;;4.13;3.60;;;13.60;99.90;;;;;;1022202;29;20379;-65
2022/03/27 01:27:47;;;;;;;3.78;2.90;;;13.60;99.90;;;;;;1021182;28;20016;-65
2022/03/27 01:28:17;;;;;;;4.87;3.40;;;13.60;99.90;;;;;;1018801;28;20145;-64
2022/03/27 01:28:48;;;;;;;4.17;3.67;;;13.60;99.90;;;;;;1022128;28;20609;-64
2022/03/27 01:29:18;;;;;;;3.73;3.03;;;13.60;99.90;;;;;;1022475;29;20132;-64
2022/03/27 01:29:49;;;;;;;5.40;3.37;;;13.60;99.90;;;;;;1022544;29;20015;-66
2022/03/27 01:30:20;;;;;;;3.40;3.10;;;13.60;99.90;;;;;;1022799;29;20027;-64
2022/03/27 01:30:51;;;;;;;4.10;3.70;;;13.60;99.90;;;;;;1022677;29;20538;-64
2022/03/27 01:31:23;;;;;;;3.87;3.13;;;13.60;99.90;;;;;;1022789;29;20035;-65
2022/03/27 01:31:53;;;;;;;4.25;3.70;;;13.60;99.90;;;;;;1022856;29;20023;-64
2022/03/27 01:32:24;;;;;;;5.40;3.10;;;13.50;99.90;;;;;;1022412;29;20067;-64
2022/03/27 01:32:55;;;;;;;4.10;3.10;;;13.60;99.90;;;;;;1022842;29;20290;-64
2022/03/27 01:33:26;;;;;;;5.50;3.17;;;13.60;99.90;;;;;;1022696;29;20029;-65
2022/03/27 01:33:56;;;;;;;3.40;3.00;;;13.60;99.90;;;;;;1022418;29;20020;-64
2022/03/27 01:34:27;;;;;;;3.60;3.30;;;13.50;99.90;;;;;;1018381;29;20025;-65
2022/03/27 01:34:57;;;;;;;3.87;3.40;;;13.50;99.90;;;;;;1018399;29;20447;-64
2022/03/27 01:35:28;;;;;;;4.03;3.50;;;13.50;99.90;;;;;;1018616;29;20483;-65
2022/03/27 01:35:59;;;;;;;3.70;3.30;;;13.50;99.90;;;;;;1022599;29;20462;-64
2022/03/27 01:36:34;;;;;;;5.33;3.43;;;13.50;99.90;;;;;;1022726;29;20298;-64
2022/03/27 01:37:09;;;;;;;3.88;3.47;;;13.50;99.90;;;;;;1022763;29;20019;-64
2022/03/27 01:37:39;;;;;;;3.90;3.42;;;13.50;99.90;;;;;;1022567;29;20027;-64
2022/03/27 01:38:10;;;;;;;3.83;3.37;;;13.50;99.90;;;;;;1022835;29;20023;-64
2022/03/27 01:38:40;;;;;;;3.23;2.80;;;13.50;99.90;;;;;;1022259;29;20114;-64
2022/03/27 01:39:16;;;;;;;4.00;3.40;;;13.50;99.90;;;;;;1022343;29;20043;-64
2022/03/27 01:39:46;;;;;;;3.92;3.22;;;13.50;99.90;;;;;;1022736;29;20022;-63
2022/03/27 01:40:18;;;;;;;3.40;3.10;;;13.50;99.90;;;;;;1022151;29;20031;-64
2022/03/27 01:40:48;;;;;;;4.68;3.55;;;13.50;99.90;;;;;;1022484;29;20106;-64
2022/03/27 01:41:19;;;;;;;4.17;3.77;;;13.50;99.90;;;;;;1022329;29;20430;-64
2022/03/27 01:41:50;;;;;;;4.30;3.47;;;13.50;99.90;;;;;;1022496;29;20098;-64
2022/03/27 01:42:20;;;;;;;3.70;3.30;;;13.50;99.90;;;;;;1022560;29;20024;-65
2022/03/27 01:42:54;;;;;;;4.00;3.60;;;13.50;99.90;;;;;;1018252;29;20034;-65
2022/03/27 01:43:24;;;;;;;4.63;3.47;;;13.50;99.90;;;;;;1018544;29;20040;-63
2022/03/27 01:43:55;;;;;;;3.57;3.20;;;13.50;99.90;;;;;;1019600;29;20085;-64
2022/03/27 01:44:26;;;;;;;3.50;3.20;;;13.50;99.90;;;;;;1022520;29;20023;-64
2022/03/27 01:44:56;;;;;;;4.25;3.47;;;13.50;99.90;;;;;;1022592;28;20086;-65
2022/03/27 01:45:31;;;;;;;4.47;3.17;;;13.50;99.90;;;;;;1021495;29;20039;-65
2022/03/27 01:46:02;;;;;;;3.35;3.03;;;13.50;99.90;;;;;;1021594;29;20028;-64
2022/03/27 01:46:38;;;;;;;4.10;3.70;;;13.50;99.90;;;;;;1022307;29;20019;-63
2022/03/27 01:47:09;;;;;;;3.58;2.92;;;13.40;99.90;;;;;;1022435;29;20373;-63
2022/03/27 01:47:39;;;;;;;5.30;3.90;;;13.40;99.90;;;;;;1022082;29;20603;-63
2022/03/27 01:48:10;;;;;;;4.07;3.13;;;13.50;99.90;;;;;;1022327;29;20011;-64
2022/03/27 01:48:41;;;;;;;3.90;3.47;;;13.50;99.90;;;;;;1022847;29;20020;-64
2022/03/27 01:49:13;;;;;;;4.10;3.63;;;13.50;99.90;;;;;;1022564;29;20022;-64
2022/03/27 01:49:44;;;;;;;5.35;3.53;;;13.40;99.90;;;;;;1022549;29;20122;-63
2022/03/27 01:50:15;;;;;;;3.63;3.17;;;13.50;99.90;;;;;;1022194;29;20019;-65
2022/03/27 01:50:58;;;;;;;4.30;3.50;;;13.50;99.90;;;;;;1022496;29;20392;-66
2022/03/27 01:51:29;;;;;;;3.63;2.92;;;13.40;99.90;;;;;;1022421;29;20089;-64
2022/03/27 01:51:59;;;;;;;3.80;3.30;;;13.50;99.90;;;;;;1018413;29;20027;-64
2022/03/27 01:52:30;;;;;;;4.50;3.87;;;13.50;99.90;;;;;;1018269;29;20024;-65
2022/03/27 01:53:01;;;;;;;3.23;2.93;;;13.50;99.90;;;;;;1018475;29;20031;-64
2022/03/27 01:53:31;;;;;;;4.43;3.53;;;13.50;99.90;;;;;;1022272;29;20547;-64
2022/03/27 01:54:03;;;;;;;4.30;3.10;;;13.40;99.90;;;;;;1022315;29;20576;-65
2022/03/27 01:54:34;;;;;;;3.70;3.35;;;13.50;99.90;;;;;;1022342;29;20656;-62
2022/03/27 01:55:11;;;;;;;4.85;3.10;;;13.50;99.90;;;;;;1022383;29;20015;-64
2022/03/27 01:55:41;;;;;;;3.20;2.90;;;13.50;99.90;;;;;;1022479;29;20090;-64
2022/03/27 01:56:12;;;;;;;3.73;3.00;;;13.50;99.90;;;;;;1022383;29;20134;-65
2022/03/27 01:56:43;;;;;;;4.60;3.95;;;13.50;99.90;;;;;;1018565;29;20020;-64
2022/03/27 01:57:13;;;;;;;3.83;3.40;;;13.40;99.90;;;;;;1018427;29;20032;-64
2022/03/27 01:57:44;;;;;;;3.87;3.30;;;13.50;99.90;;;;;;1018348;29;20588;-63
2022/03/27 01:58:14;;;;;;;3.87;3.20;;;13.50;99.90;;;;;;1018481;29;20119;-65
2022/03/27 01:58:45;;;;;;;4.43;3.70;;;13.50;99.90;;;;;;1022418;29;20098;-64
2022/03/27 01:59:16;;;;;;;4.27;3.87;;;13.50;99.90;;;;;;1022741;29;20085;-63
2022/03/27 01:59:47;;;;;;;4.77;4.10;;;13.40;99.90;;;;;;1022731;29;20398;-64
2022/03/27 02:00:18;;;;;;;4.13;3.70;;;13.40;99.90;;;;;;1022646;29;20293;-63
2022/03/27 02:00:49;;;;;;;3.57;3.27;;;13.40;99.90;;;;;;1022798;29;20020;-64
2022/03/27 02:01:20;;;;;;;4.90;3.70;;;13.40;99.90;;;;;;1022809;29;20086;-64
2022/03/27 02:01:51;;;;;;;3.73;3.33;;;13.40;99.90;;;;;;1022166;29;20094;-64
2022/03/27 02:02:24;;;;;;;4.53;3.73;;;13.40;99.90;;;;;;1022416;29;20023;-64
2022/03/27 02:02:54;;;;;;;4.05;3.70;;;13.40;99.90;;;;;;1017848;29;20019;-64
2022/03/27 02:03:28;;;;;;;4.17;3.70;;;13.40;99.90;;;;;;1018935;29;20019;-63
2022/03/27 02:03:58;;;;;;;4.30;3.88;;;13.40;99.90;;;;;;1022402;29;20050;-62
2022/03/27 02:04:29;;;;;;;4.60;3.60;;;13.40;99.90;;;;;;1022375;29;20034;-65
2022/03/27 02:05:01;;;;;;;4.70;4.10;;;13.40;99.90;;;;;;1022330;29;20023;-63
2022/03/27 02:05:32;;;;;;;4.18;3.63;;;13.40;99.90;;;;;;1018220;29;20027;-63
2022/03/27 02:06:05;;;;;;;5.70;3.53;;;13.40;99.90;;;;;;1018441;29;20178;-64
2022/03/27 02:06:37;;;;;;;6.35;3.55;;;13.40;99.90;;;;;;1019258;29;20028;-65
2022/03/27 02:07:07;;;;;;;4.00;3.60;;;13.40;99.90;;;;;;1022427;29;20023;-63
2022/03/27 02:07:45;;;;;;;3.90;3.50;;;13.40;99.90;;;;;;1022767;29;20035;-63
2022/03/27 02:08:15;;;;;;;4.13;3.53;;;13.40;99.90;;;;;;1022378;29;20573;-63
2022/03/27 02:08:47;;;;;;;3.63;3.20;;;13.40;99.90;;;;;;1022869;29;20493;-64
2022/03/27 02:09:17;;;;;;;4.47;3.85;;;13.40;99.90;;;;;;1022518;29;20026;-65
2022/03/27 02:09:51;;;;;;;4.40;4.00;;;13.40;99.90;;;;;;1022707;29;20131;-64
2022/03/27 02:10:22;;;;;;;4.28;3.67;;;13.40;99.90;;;;;;1022799;29;20049;-64
2022/03/27 02:10:53;;;;;;;4.03;3.53;;;13.40;99.90;;;;;;1022195;29;20043;-64
2022/03/27 02:11:24;;;;;;;4.70;3.70;;;13.40;99.90;;;;;;1022297;29;20030;-65
2022/03/27 02:11:54;;;;;;;3.63;3.33;;;13.40;99.90;;;;;;1022553;29;20484;-64
2022/03/27 02:12:25;;;;;;;3.83;3.43;;;13.40;99.90;;;;;;1022333;29;20553;-64
2022/03/27 02:12:55;;;;;;;3.97;3.43;;;13.40;99.90;;;;;;1022706;29;20664;-64
2022/03/27 02:13:26;;;;;;;4.23;3.40;;;13.40;99.90;;;;;;1021970;29;20027;-64
2022/03/27 02:13:57;;;;;;;4.03;3.63;;;13.40;99.90;;;;;;1022356;29;20550;-64
2022/03/27 02:14:27;;;;;;;4.43;3.60;;;13.40;99.90;;;;;;1022352;29;20035;-64
2022/03/27 02:14:58;;;;;;;4.40;3.47;;;13.40;99.90;;;;;;1022128;29;20467;-65
2022/03/27 02:15:29;;;;;;;4.40;3.70;;;13.40;99.90;;;;;;1022282;29;20125;-64
2022/03/27 02:16:01;;;;;;;5.75;4.43;;;13.40;99.90;;;;;;1022384;29;20019;-64
2022/03/27 02:16:31;;;;;;;3.55;3.20;;;13.40;99.90;;;;;;1022037;29;20608;-66
2022/03/27 02:17:02;;;;;;;4.27;3.83;;;13.40;99.90;;;;;;1022368;29;20712;-65
2022/03/27 02:17:39;;;;;;;3.93;3.53;;;13.40;99.90;;;;;;1022249;29;20059;-65
2022/03/27 02:18:10;;;;;;;5.22;3.78;;;13.40;99.90;;;;;;1021966;29;20094;-63
2022/03/27 02:18:42;;;;;;;5.40;3.45;;;13.40;99.90;;;;;;1019289;29;20126;-63
2022/03/27 02:19:13;;;;;;;4.82;4.32;;;13.40;99.90;;;;;;1022164;29;20027;-65
2022/03/27 02:19:43;;;;;;;3.77;3.43;;;13.40;99.90;;;;;;1018420;29;20024;-64
2022/03/27 02:20:14;;;;;;;4.47;3.23;;;13.40;99.90;;;;;;1018626;29;20016;-63
2022/03/27 02:20:45;;;;;;;4.67;4.27;;;13.40;99.90;;;;;;1022337;29;20142;-64
2022/03/27 02:21:15;;;;;;;5.53;4.17;;;13.40;99.90;;;;;;1022274;29;20097;-65
2022/03/27 02:21:46;;;;;;;4.40;3.97;;;13.30;99.90;;;;;;1022399;29;20102;-66
2022/03/27 02:22:16;;;;;;;5.27;4.07;;;13.30;99.90;;;;;;1022411;29;20029;-65
2022/03/27 02:22:47;;;;;;;4.43;3.87;;;13.30;99.90;;;;;;1022716;29;20027;-65
2022/03/27 02:23:17;;;;;;;4.30;3.90;;;13.30;99.90;;;;;;1022229;29;20101;-65
2022/03/27 02:23:48;;;;;;;4.50;3.67;;;13.30;99.90;;;;;;1022321;29;20382;-65
2022/03/27 02:24:19;;;;;;;4.13;3.73;;;13.40;99.90;;;;;;1017298;28;20829;-64
2022/03/27 02:24:49;;;;;;;4.40;4.00;;;13.30;99.90;;;;;;1021712;29;20132;-63
2022/03/27 02:25:20;;;;;;;3.87;3.13;;;13.30;99.90;;;;;;1022251;29;20023;-64
2022/03/27 02:25:52;;;;;;;4.15;3.70;;;13.30;99.90;;;;;;1022466;29;20023;-63
2022/03/27 02:26:22;;;;;;;4.30;3.90;;;13.30;99.90;;;;;;1022583;29;20609;-63
2022/03/27 02:26:53;;;;;;;3.97;3.57;;;13.30;99.90;;;;;;1022573;29;20718;-63
2022/03/27 02:27:24;;;;;;;4.55;3.47;;;13.30;99.90;;;;;;1022690;29;20027;-63
2022/03/27 02:27:54;;;;;;;4.37;3.80;;;13.30;99.90;;;;;;1022589;29;20019;-63
2022/03/27 02:28:25;;;;;;;4.33;3.77;;;13.30;99.90;;;;;;1022416;29;20406;-64
2022/03/27 02:28:56;;;;;;;3.70;3.40;;;13.30;99.90;;;;;;1022619;29;20689;-65
2022/03/27 02:29:26;;;;;;;4.47;4.03;;;13.30;99.90;;;;;;1022710;29;20109;-65
2022/03/27 02:29:57;;;;;;;4.30;3.90;;;13.30;99.90;;;;;;1022827;29;20035;-64
2022/03/27 02:30:27;;;;;;;3.90;3.60;;;13.30;99.90;;;;;;1022716;29;20062;-64
2022/03/27 02:30:58;;;;;;;3.70;3.40;;;13.30;99.90;;;;;;1022381;29;20110;-63
2022/03/27 02:31:28;;;;;;;4.83;4.00;;;13.30;99.90;;;;;;1022632;29;20950;-64
2022/03/27 02:31:59;;;;;;;4.47;4.07;;;13.30;99.90;;;;;;1022243;29;20475;-64
2022/03/27 02:32:29;;;;;;;4.00;3.60;;;13.30;99.90;;;;;;1022149;29;20031;-63
2022/03/27 02:33:00;;;;;;;3.63;3.10;;;13.30;99.90;;;;;;1022180;28;20114;-64
2022/03/27 02:33:31;;;;;;;5.13;4.07;;;13.30;99.90;;;;;;1021808;29;20075;-64
2022/03/27 02:34:01;;;;;;;4.50;3.90;;;13.20;99.90;;;;;;1022679;29;20019;-63
2022/03/27 02:34:32;;;;;;;4.27;3.87;;;13.20;99.90;;;;;;1022007;29;20122;-64
2022/03/27 02:35:02;;;;;;;3.13;2.80;;;13.20;99.90;;;;;;1022407;29;20024;-65
2022/03/27 02:35:33;;;;;;;4.27;3.87;;;13.20;99.90;;;;;;1022211;29;20027;-64
2022/03/27 02:36:10;;;;;;;4.77;4.27;;;13.30;99.90;;;;;;1022417;29;20027;-64
2022/03/27 02:36:41;;;;;;;3.95;3.55;;;13.20;99.90;;;;;;1022169;29;20285;-64
2022/03/27 02:37:13;;;;;;;5.00;4.07;;;13.20;99.90;;;;;;1022172;29;20561;-64
2022/03/27 02:37:43;;;;;;;4.70;4.30;;;13.20;99.90;;;;;;1022365;29;20102;-64
2022/03/27 02:38:14;;;;;;;4.50;4.10;;;13.20;99.90;;;;;;1018311;29;20027;-65
2022/03/27 02:38:44;;;;;;;4.10;3.70;;;13.20;99.90;;;;;;1021935;29;20043;-64
2022/03/27 02:39:15;;;;;;;5.27;4.27;;;13.20;99.90;;;;;;1018001;29;20131;-64
2022/03/27 02:39:46;;;;;;;5.30;4.80;;;13.20;99.90;;;;;;1018536;29;20103;-64
2022/03/27 02:40:17;;;;;;;4.50;4.00;;;13.20;99.90;;;;;;1022288;29;20398;-63
2022/03/27 02:40:47;;;;;;;6.47;4.40;;;13.20;99.90;;;;;;1022260;29;20083;-66
2022/03/27 02:41:18;;;;;;;5.00;4.50;;;13.20;99.90;;;;;;1022565;29;20379;-64
2022/03/27 02:41:48;;;;;;;5.37;4.37;;;13.20;99.90;;;;;;1022650;29;20042;-65
2022/03/27 02:42:20;;;;;;;4.80;4.40;;;13.20;99.90;;;;;;1025536;28;20106;-63
2022/03/27 02:42:50;;;;;;;5.78;4.05;;;13.20;99.90;;;;;;1026439;28;20010;-63
2022/03/27 02:43:21;;;;;;;4.17;3.70;;;13.20;99.90;;;;;;1026520;28;20023;-64
2022/03/27 02:43:51;;;;;;;4.33;3.93;;;13.20;99.90;;;;;;1024235;28;20091;-63
2022/03/27 02:44:22;;;;;;;4.07;3.67;;;13.20;99.90;;;;;;1022094;29;20034;-65
2022/03/27 02:44:53;;;;;;;3.92;3.53;;;13.20;99.90;;;;;;1022142;29;20020;-64
2022/03/27 02:45:23;;;;;;;5.30;4.80;;;13.20;99.90;;;;;;1022103;29;20054;-64
2022/03/27 02:45:54;;;;;;;7.00;5.33;;;13.20;99.90;;;;;;1022224;29;20028;-65